Terminal Aerodrome Forecast
Issued by NWS Wilmington, OH

Current Version | Previous Version | Graphics & Text | Print | Product List | Glossary On
Versions: 1 2 3 4 5 6 7 8 9 10 11 12 13 14 15 16 17 18 19 20 21 22 23 24 25 26 27
000
FTUS41 KILN 241100
TAFCVG
TAF
KCVG 241137Z 2412/2518 04010KT P6SM SCT015 OVC060
      TEMPO 2412/2414 BKN015
     FM241400 06008KT P6SM OVC035
     FM241900 08009KT P6SM VCSH BKN050
     FM250200 13010KT P6SM VCSH OVC060
     FM250800 18013G20KT 4SM -SHRA SCT025 BKN035
     FM251300 23014G24KT P6SM VCSH BKN050=

USA.gov is the U.S. government's official web portal to all federal, state and local government web resources and services.